Time;durP1;ratioP1;P1;durP2;ratioP2;P2;SDS_P1;SDS_P2;PMS_P1;PMS_P2;Temp;Humidity;BMP_temperature;BMP_pressure;BME280_temperature;BME280_humidity;BME280_pressure;Samples;Min_cycle;Max_cycle;Signal;HPM_P1;HPM_P2
2023/07/06 00:00:09;;;;;;;4.13;3.47;;;;;;;27.49;53.71;98672.47;2060982;28;20074;-53
2023/07/06 00:01:11;;;;;;;9.20;4.90;;;;;;;27.49;53.73;98671.66;2063740;28;20046;-53
2023/07/06 00:02:14;;;;;;;6.53;3.05;;;;;;;27.48;53.54;98670.03;2062859;28;20043;-52
2023/07/06 00:03:15;;;;;;;4.28;3.13;;;;;;;27.48;53.64;98670.03;2062183;28;20069;-52
2023/07/06 00:04:17;;;;;;;6.35;4.20;;;;;;;27.47;53.65;98663.75;2061965;28;20053;-49
2023/07/06 00:05:17;;;;;;;4.72;3.22;;;;;;;27.50;53.68;98667.88;2061106;28;20508;-55
2023/07/06 00:06:19;;;;;;;4.95;2.92;;;;;;;27.48;53.47;98665.41;2061168;28;20054;-54
2023/07/06 00:07:21;;;;;;;5.90;4.00;;;;;;;27.52;53.36;98668.41;2064210;28;20539;-51
2023/07/06 00:08:23;;;;;;;4.95;3.35;;;;;;;27.50;53.50;98665.97;2054853;28;20057;-51
2023/07/06 00:09:23;;;;;;;8.80;3.75;;;;;;;27.50;53.68;98670.59;2062180;28;20481;-49
2023/07/06 00:10:25;;;;;;;5.43;3.15;;;;;;;27.52;53.09;98668.41;2061342;28;20049;-50
2023/07/06 00:11:32;;;;;;;7.20;4.20;;;;;;;27.50;53.17;98662.44;2061714;28;20084;-52
2023/07/06 00:12:34;;;;;;;5.15;3.13;;;;;;;27.49;53.50;98664.31;2060717;28;20050;-49
2023/07/06 00:13:35;;;;;;;5.60;3.40;;;;;;;27.52;53.26;98654.78;2061249;28;20061;-49
2023/07/06 00:14:38;;;;;;;5.45;3.30;;;;;;;27.52;53.43;98654.78;2054187;28;20157;-52
2023/07/06 00:15:42;;;;;;;4.10;3.15;;;;;;;27.51;53.30;98658.59;2062643;28;20083;-52
2023/07/06 00:16:47;;;;;;;4.35;3.08;;;;;;;27.49;53.32;98652.59;2060854;28;20093;-51
2023/07/06 00:17:48;;;;;;;5.03;3.20;;;;;;;27.50;53.13;98655.06;2062328;28;20053;-57
2023/07/06 00:18:50;;;;;;;4.63;3.40;;;;;;;27.52;53.53;98655.59;2062927;28;20116;-54
2023/07/06 00:19:51;;;;;;;5.53;2.97;;;;;;;27.53;53.64;98651.00;2060565;28;20081;-53
2023/07/06 00:20:53;;;;;;;3.92;3.08;;;;;;;27.51;53.60;98645.81;2063560;28;20054;-47
2023/07/06 00:21:54;;;;;;;4.40;2.92;;;;;;;27.51;53.44;98653.97;2059056;28;20053;-52
2023/07/06 00:22:56;;;;;;;4.05;2.53;;;;;;;27.52;53.46;98646.63;2063078;28;20088;-49
2023/07/06 00:23:57;;;;;;;3.50;2.92;;;;;;;27.52;53.52;98649.34;2062534;28;20085;-51
2023/07/06 00:24:59;;;;;;;6.15;3.45;;;;;;;27.54;53.20;98645.28;2061091;28;20868;-52
2023/07/06 00:26:00;;;;;;;6.55;3.13;;;;;;;27.55;52.82;98648.81;2062686;28;20069;-54
2023/07/06 00:27:02;;;;;;;6.28;3.13;;;;;;;27.52;53.21;98650.16;2060254;28;20065;-53
2023/07/06 00:28:03;;;;;;;5.38;3.22;;;;;;;27.52;53.36;98655.59;2063467;28;20050;-54
2023/07/06 00:29:05;;;;;;;4.75;3.47;;;;;;;27.54;53.17;98652.63;2060661;28;20050;-49
2023/07/06 00:30:15;;;;;;;5.20;3.92;;;;;;;27.52;52.84;98658.34;2056310;28;22082;-49
2023/07/06 00:31:31;;;;;;;5.45;2.78;;;;;;;27.52;53.44;98658.34;2061502;28;20128;-51
2023/07/06 00:32:32;;;;;;;7.85;2.75;;;;;;;27.50;53.00;98662.44;2061082;28;20417;-52
2023/07/06 00:33:36;;;;;;;3.92;2.85;;;;;;;27.50;53.55;98651.53;2059684;28;20054;-52
2023/07/06 00:34:37;;;;;;;4.13;3.65;;;;;;;27.54;53.35;98652.63;2065898;28;20049;-53
2023/07/06 00:35:40;;;;;;;4.80;3.15;;;;;;;27.52;53.36;98654.78;2060113;28;20085;-47
2023/07/06 00:36:41;;;;;;;4.20;3.38;;;;;;;27.48;53.36;98648.25;2061853;28;20038;-50
2023/07/06 00:37:43;;;;;;;8.15;3.78;;;;;;;27.49;53.61;98649.88;2062216;28;20073;-50
2023/07/06 00:38:44;;;;;;;8.57;4.18;;;;;;;27.53;53.11;98645.56;2062675;28;20432;-53
2023/07/06 00:39:46;;;;;;;6.20;2.75;;;;;;;27.52;53.13;98644.72;2063094;28;20053;-48
2023/07/06 00:40:49;;;;;;;4.70;3.13;;;;;;;27.56;53.05;98645.03;2065153;28;20105;-53
2023/07/06 00:41:52;;;;;;;6.10;3.38;;;;;;;27.55;52.93;98648.81;2062003;28;20046;-50
2023/07/06 00:42:54;;;;;;;4.32;2.60;;;;;;;27.51;53.15;98639.53;2064110;28;20492;-50
2023/07/06 00:43:56;;;;;;;4.63;2.78;;;;;;;27.56;52.71;98639.59;2061846;28;20567;-50
2023/07/06 00:44:58;;;;;;;4.18;2.97;;;;;;;27.54;52.74;98639.00;2062299;28;20050;-52
2023/07/06 00:46:08;;;;;;;4.72;3.22;;;;;;;27.51;53.11;98642.25;2053037;28;20050;-52
2023/07/06 00:47:12;;;;;;;6.75;3.20;;;;;;;27.45;53.34;98635.16;2061432;28;20056;-48
2023/07/06 00:48:20;;;;;;;5.32;3.20;;;;;;;27.52;53.24;98641.97;2060487;28;20038;-53
2023/07/06 00:49:20;;;;;;;7.22;4.00;;;;;;;27.51;53.28;98637.63;2060160;28;21229;-52
2023/07/06 00:50:24;;;;;;;4.90;3.10;;;;;;;27.51;52.89;98634.09;2062410;28;20129;-48
2023/07/06 00:51:29;;;;;;;4.10;3.03;;;;;;;27.53;53.16;98631.94;2063845;28;20074;-50
2023/07/06 00:52:31;;;;;;;4.13;2.80;;;;;;;27.54;52.62;98628.94;2060073;28;20071;-53
2023/07/06 00:53:37;;;;;;;3.05;2.55;;;;;;;27.54;52.64;98625.38;2063322;28;21140;-53
2023/07/06 00:54:42;;;;;;;3.90;3.05;;;;;;;27.53;52.56;98632.75;2060253;28;20043;-51
2023/07/06 00:55:43;;;;;;;3.42;3.10;;;;;;;27.53;52.68;98629.22;2058677;28;20055;-48
2023/07/06 00:56:52;;;;;;;5.20;2.88;;;;;;;27.53;52.82;98626.47;2062497;28;20651;-51
2023/07/06 00:57:56;;;;;;;4.28;2.97;;;;;;;27.53;52.93;98634.66;2064032;28;20087;-49
2023/07/06 00:59:03;;;;;;;4.57;3.10;;;;;;;27.52;53.22;98636.53;2058770;28;20053;-48
2023/07/06 01:00:06;;;;;;;3.25;2.30;;;;;;;27.50;53.11;98635.19;2061499;28;20584;-49
2023/07/06 01:01:10;;;;;;;3.58;2.60;;;;;;;27.52;53.09;98633.81;2062329;28;20041;-52
2023/07/06 01:02:16;;;;;;;4.15;2.42;;;;;;;27.51;53.44;98636.81;2061520;28;20049;-52
2023/07/06 01:03:19;;;;;;;4.85;2.40;;;;;;;27.51;53.21;98634.09;2061858;28;20042;-51
2023/07/06 01:04:21;;;;;;;3.78;2.60;;;;;;;27.50;53.22;98635.19;2057822;28;20050;-52
2023/07/06 01:05:26;;;;;;;5.20;2.90;;;;;;;27.50;53.11;98636.00;2052679;28;21744;-52
2023/07/06 01:06:31;;;;;;;5.00;3.22;;;;;;;27.49;53.20;98639.78;2060904;28;20046;-52
2023/07/06 01:07:36;;;;;;;5.22;3.10;;;;;;;27.51;53.46;98640.34;2061897;28;20045;-52
2023/07/06 01:08:37;;;;;;;4.95;3.20;;;;;;;27.49;53.23;98634.34;2062863;28;20080;-51
2023/07/06 01:09:39;;;;;;;3.13;2.67;;;;;;;27.52;53.16;98638.44;2059953;28;20132;-50
2023/07/06 01:10:40;;;;;;;5.68;3.80;;;;;;;27.48;53.39;98635.44;2065702;28;20628;-51
2023/07/06 01:11:43;;;;;;;4.35;2.42;;;;;;;27.49;53.21;98631.63;2062066;28;20046;-53
2023/07/06 01:12:44;;;;;;;4.20;2.80;;;;;;;27.51;53.40;98637.63;2060610;28;20128;-48
2023/07/06 01:13:49;;;;;;;3.38;2.63;;;;;;;27.52;53.26;98633.00;2062766;28;20049;-53
2023/07/06 01:14:50;;;;;;;3.90;2.58;;;;;;;27.50;53.07;98625.09;2059452;28;20144;-50
2023/07/06 01:16:00;;;;;;;5.05;2.70;;;;;;;27.51;53.13;98634.09;2060672;28;20153;-51
2023/07/06 01:17:07;;;;;;;3.15;2.40;;;;;;;27.48;52.87;98632.72;2059905;28;20046;-53
2023/07/06 01:18:19;;;;;;;5.00;2.95;;;;;;;27.48;53.09;98632.72;2062084;28;20076;-52
2023/07/06 01:19:43;;;;;;;5.65;3.60;;;;;;;27.47;52.87;98627.50;2060176;28;20065;-53
2023/07/06 01:20:53;;;;;;;3.88;2.70;;;;;;;27.49;52.81;98628.91;2060560;28;20104;-54
2023/07/06 01:22:12;;;;;;;5.30;3.13;;;;;;;27.47;52.65;98624.78;2066671;28;20050;-50
2023/07/06 01:23:49;;;;;;;8.90;2.60;;;;;;;27.45;52.88;98632.41;2053063;28;23765;-54
2023/07/06 01:25:20;;;;;;;4.53;2.72;;;;;;;27.40;53.31;98625.03;2060622;28;20055;-51
2023/07/06 01:26:48;;;;;;;3.22;2.60;;;;;;;27.39;53.23;98624.22;2062878;28;20042;-53
2023/07/06 01:28:10;;;;;;;3.20;2.30;;;;;;;27.44;52.71;98630.75;2062158;28;21321;-52
2023/07/06 01:29:46;;;;;;;4.35;2.97;;;;;;;27.43;52.62;98629.13;2060785;28;20637;-48
2023/07/06 01:31:02;;;;;;;4.30;3.05;;;;;;;27.47;52.50;98630.22;2062080;28;20050;-51
2023/07/06 01:32:10;;;;;;;4.45;3.33;;;;;;;27.46;52.43;98629.41;2063222;28;20431;-50
2023/07/06 01:33:15;;;;;;;3.60;2.67;;;;;;;27.47;52.61;98620.19;2062452;28;20050;-48
2023/07/06 01:34:26;;;;;;;3.78;2.65;;;;;;;27.51;52.30;98625.91;2062535;28;20043;-52
2023/07/06 01:35:36;;;;;;;3.72;2.40;;;;;;;27.49;52.49;98626.16;2061697;28;20054;-51
2023/07/06 01:36:44;;;;;;;4.73;2.70;;;;;;;27.47;52.93;98624.78;2060353;28;20070;-49
2023/07/06 01:37:45;;;;;;;3.67;2.70;;;;;;;27.47;52.68;98625.63;2061395;28;20051;-49
2023/07/06 01:38:48;;;;;;;3.15;2.50;;;;;;;27.48;52.59;98623.72;2061607;28;20050;-52
2023/07/06 01:39:49;;;;;;;5.00;3.05;;;;;;;27.48;52.69;98618.28;2044617;28;20045;-48
2023/07/06 01:40:51;;;;;;;4.32;3.45;;;;;;;27.48;52.34;98624.53;2062058;28;20204;-51
2023/07/06 01:42:29;;;;;;;6.88;3.38;;;;;;;27.44;52.76;98620.69;2060176;28;20127;-50
2023/07/06 01:43:30;;;;;;;4.90;2.55;;;;;;;27.44;52.67;98626.13;2062846;28;20664;-47
2023/07/06 01:44:32;;;;;;;3.03;2.72;;;;;;;27.46;52.56;98621.25;2059574;28;20133;-49
2023/07/06 01:45:35;;;;;;;4.03;3.05;;;;;;;27.49;52.36;98618.00;2060068;28;20054;-48
2023/07/06 01:46:37;;;;;;;3.97;2.63;;;;;;;27.50;52.41;98622.38;2062580;28;20134;-52
2023/07/06 01:47:43;;;;;;;4.90;3.78;;;;;;;27.47;52.18;98620.19;2061897;28;20074;-52
2023/07/06 01:48:45;;;;;;;4.53;3.25;;;;;;;27.48;52.29;98621.00;2061312;28;20543;-51
2023/07/06 01:49:48;;;;;;;4.22;2.92;;;;;;;27.46;52.32;98613.06;2058765;28;20087;-51
2023/07/06 01:51:01;;;;;;;4.47;3.60;;;;;;;27.47;52.45;98616.63;2061176;28;20738;-53
2023/07/06 01:52:12;;;;;;;4.07;2.75;;;;;;;27.47;52.68;98616.63;2061029;28;20611;-48
2023/07/06 01:53:22;;;;;;;5.63;2.85;;;;;;;27.44;52.53;98615.22;2063601;28;20052;-52
2023/07/06 01:54:30;;;;;;;4.95;3.35;;;;;;;27.45;52.49;98619.63;2059460;28;20050;-52
2023/07/06 01:55:40;;;;;;;5.55;3.25;;;;;;;27.44;53.04;98625.31;2062748;28;20048;-52
2023/07/06 01:56:46;;;;;;;3.85;2.83;;;;;;;27.47;52.55;98624.78;2055642;28;20042;-50
2023/07/06 01:57:59;;;;;;;3.67;2.45;;;;;;;27.46;52.87;98620.44;2061308;28;20054;-52
2023/07/06 01:59:03;;;;;;;4.68;2.90;;;;;;;27.43;52.79;98626.41;2061120;28;20050;-50
2023/07/06 02:00:09;;;;;;;5.28;3.05;;;;;;;27.44;52.71;98625.31;2063879;28;20064;-52
2023/07/06 02:01:17;;;;;;;4.65;2.78;;;;;;;27.45;52.57;98618.81;2059452;28;20057;-51
2023/07/06 02:02:19;;;;;;;3.83;2.40;;;;;;;27.47;52.39;98627.50;2062661;28;20054;-52
2023/07/06 02:03:24;;;;;;;4.30;2.80;;;;;;;27.46;52.67;98617.72;2062645;28;20046;-48
2023/07/06 02:04:26;;;;;;;3.63;2.53;;;;;;;27.44;52.56;98619.88;2059454;28;20042;-52
2023/07/06 02:05:28;;;;;;;5.97;3.03;;;;;;;27.47;52.77;98620.19;2061632;28;20952;-52
2023/07/06 02:06:30;;;;;;;3.75;2.55;;;;;;;27.47;52.52;98631.06;2062637;28;20085;-52
2023/07/06 02:07:33;;;;;;;4.53;2.78;;;;;;;27.46;52.84;98634.88;2061113;28;20042;-52
2023/07/06 02:08:41;;;;;;;4.07;3.20;;;;;;;27.48;52.83;98634.63;2059990;28;20054;-50
2023/07/06 02:09:43;;;;;;;6.47;2.67;;;;;;;27.44;52.58;98641.66;2058974;28;20046;-51
2023/07/06 02:10:45;;;;;;;3.90;2.95;;;;;;;27.45;52.69;98643.31;2065893;28;20548;-53
2023/07/06 02:11:46;;;;;;;5.53;2.90;;;;;;;27.46;52.37;98634.88;2062526;28;20050;-57
2023/07/06 02:12:49;;;;;;;2.88;2.22;;;;;;;27.48;52.58;98642.78;2052814;28;25695;-53
2023/07/06 02:13:49;;;;;;;4.20;2.55;;;;;;;27.47;52.67;98641.13;2061711;28;20068;-51
2023/07/06 02:14:53;;;;;;;6.35;3.80;;;;;;;27.47;52.62;98635.69;2060680;28;20046;-49
2023/07/06 02:15:54;;;;;;;4.47;2.80;;;;;;;27.47;52.73;98632.97;2061744;28;20673;-50
2023/07/06 02:16:56;;;;;;;4.95;2.78;;;;;;;27.49;52.97;98636.25;2063424;28;20050;-48
2023/07/06 02:17:57;;;;;;;4.35;2.85;;;;;;;27.47;52.63;98631.06;2062617;28;20057;-49
2023/07/06 02:19:01;;;;;;;4.88;3.30;;;;;;;27.50;53.14;98629.75;2064908;28;20153;-47
2023/07/06 02:20:02;;;;;;;5.35;3.35;;;;;;;27.47;52.17;98631.06;2062622;28;20057;-50
2023/07/06 02:21:04;;;;;;;4.82;2.83;;;;;;;27.47;52.67;98622.91;2064402;28;20085;-48
2023/07/06 02:22:05;;;;;;;6.90;2.80;;;;;;;27.48;53.01;98627.25;2061105;28;20058;-52
2023/07/06 02:23:08;;;;;;;3.53;2.35;;;;;;;27.49;52.66;98628.91;2059932;28;20133;-50
2023/07/06 02:24:09;;;;;;;5.15;3.10;;;;;;;27.50;52.49;98622.38;2060315;28;20057;-52
2023/07/06 02:25:11;;;;;;;3.28;2.80;;;;;;;27.48;52.74;98623.72;2061744;28;20719;-49
2023/07/06 02:26:12;;;;;;;3.55;3.00;;;;;;;27.51;51.86;98621.28;2061762;28;20046;-53
2023/07/06 02:27:14;;;;;;;3.20;2.88;;;;;;;27.50;52.46;98635.19;2060875;28;20064;-54
2023/07/06 02:28:15;;;;;;;4.03;2.78;;;;;;;27.48;52.10;98627.25;2058337;28;20531;-50
2023/07/06 02:29:17;;;;;;;2.60;2.35;;;;;;;27.49;51.70;98628.06;2051083;28;20125;-53
2023/07/06 02:30:18;;;;;;;3.78;2.55;;;;;;;27.48;52.35;98621.81;2061755;28;20090;-49
2023/07/06 02:31:20;;;;;;;3.45;2.95;;;;;;;27.48;52.14;98626.44;2063740;28;20050;-50
2023/07/06 02:32:20;;;;;;;3.03;2.55;;;;;;;27.48;52.37;98626.44;2062077;28;20085;-53
2023/07/06 02:33:23;;;;;;;4.57;2.95;;;;;;;27.45;52.48;98619.63;2065309;28;20068;-49
2023/07/06 02:34:28;;;;;;;4.78;2.80;;;;;;;27.46;52.13;98629.41;2066581;28;20046;-53
2023/07/06 02:35:32;;;;;;;5.13;3.22;;;;;;;27.44;51.93;98628.03;2065010;28;20918;-50
2023/07/06 02:36:33;;;;;;;4.78;2.65;;;;;;;27.44;52.02;98625.31;2062547;28;20069;-51
2023/07/06 02:37:36;;;;;;;4.00;3.20;;;;;;;27.43;52.09;98629.94;2062251;28;20050;-51
2023/07/06 02:38:37;;;;;;;3.55;2.65;;;;;;;27.46;52.02;98626.69;2066039;28;20046;-53
2023/07/06 02:39:39;;;;;;;3.00;2.45;;;;;;;27.48;52.21;98629.16;2066122;28;20046;-51
2023/07/06 02:40:40;;;;;;;6.47;3.03;;;;;;;27.47;51.88;98622.91;2063974;28;20050;-52
2023/07/06 02:41:42;;;;;;;4.05;2.53;;;;;;;27.46;51.64;98617.72;2062632;28;20046;-52
2023/07/06 02:42:43;;;;;;;3.47;2.47;;;;;;;27.46;51.61;98620.44;2063292;28;20046;-54
2023/07/06 02:43:45;;;;;;;6.47;3.33;;;;;;;27.46;51.78;98617.72;2063883;28;20054;-55
2023/07/06 02:44:46;;;;;;;3.45;2.22;;;;;;;27.40;51.62;98611.41;2064544;28;20042;-56
2023/07/06 02:45:48;;;;;;;5.10;3.40;;;;;;;27.45;51.82;98616.09;2062706;28;20535;-54
2023/07/06 02:46:49;;;;;;;5.90;2.70;;;;;;;27.45;51.89;98616.91;2064297;28;20054;-50
2023/07/06 02:47:51;;;;;;;13.75;2.50;;;;;;;27.47;51.36;98613.88;2064296;28;20081;-50
2023/07/06 02:48:52;;;;;;;4.07;3.10;;;;;;;27.46;51.87;98621.25;2067577;28;20054;-54
2023/07/06 02:49:55;;;;;;;4.25;3.03;;;;;;;27.48;51.46;98615.56;2062247;28;20477;-53
2023/07/06 02:50:57;;;;;;;9.82;3.60;;;;;;;27.47;51.44;98608.44;2065810;28;20049;-54
2023/07/06 02:52:00;;;;;;;4.90;2.80;;;;;;;27.44;51.85;98612.50;2062293;28;20046;-53
2023/07/06 02:53:01;;;;;;;3.80;2.70;;;;;;;27.45;51.26;98616.09;2063646;28;20046;-50
2023/07/06 02:54:03;;;;;;;6.30;3.35;;;;;;;27.45;51.40;98603.28;2062625;28;20046;-55
2023/07/06 02:55:04;;;;;;;4.85;3.38;;;;;;;27.48;51.19;98615.56;2065498;28;20050;-54
2023/07/06 02:56:06;;;;;;;5.65;3.00;;;;;;;27.46;51.46;98614.97;2062407;28;20932;-51
2023/07/06 02:57:07;;;;;;;3.97;3.10;;;;;;;27.45;51.58;98607.91;2062494;28;20050;-51
2023/07/06 02:58:09;;;;;;;3.50;2.70;;;;;;;27.45;51.56;98605.19;2061387;28;20472;-54
2023/07/06 02:59:11;;;;;;;6.65;2.97;;;;;;;27.44;51.46;98606.25;2062005;28;20578;-55
2023/07/06 03:00:16;;;;;;;2.92;2.63;;;;;;;27.46;51.50;98612.25;2060492;28;20073;-54
2023/07/06 03:01:18;;;;;;;5.65;2.83;;;;;;;27.46;51.29;98606.81;2063272;28;20049;-52
2023/07/06 03:02:20;;;;;;;4.35;3.05;;;;;;;27.45;51.34;98610.63;2063350;28;20694;-50
2023/07/06 03:03:23;;;;;;;5.00;2.63;;;;;;;27.44;51.30;98612.50;2063846;28;20537;-51
2023/07/06 03:04:25;;;;;;;2.97;2.38;;;;;;;27.46;51.13;98610.34;2063635;28;20045;-50
2023/07/06 03:05:27;;;;;;;6.35;2.83;;;;;;;27.47;51.22;98605.72;2058658;28;20088;-51
2023/07/06 03:06:30;;;;;;;5.05;3.20;;;;;;;27.47;50.75;98606.56;2063656;28;20070;-50
2023/07/06 03:07:34;;;;;;;3.13;2.83;;;;;;;27.45;51.33;98616.09;2065470;28;21299;-52
2023/07/06 03:08:36;;;;;;;4.35;2.92;;;;;;;27.43;51.14;98607.34;2060349;28;20050;-53
2023/07/06 03:09:37;;;;;;;4.65;2.72;;;;;;;27.44;50.78;98606.25;2062785;28;20439;-51
2023/07/06 03:10:38;;;;;;;6.35;3.50;;;;;;;27.43;50.79;98607.34;2064713;28;20045;-50
2023/07/06 03:11:44;;;;;;;5.05;2.65;;;;;;;27.44;51.15;98606.25;2064897;28;20069;-53
2023/07/06 03:12:48;;;;;;;6.45;2.90;;;;;;;27.42;51.24;98601.06;2062974;28;20058;-50
2023/07/06 03:13:49;;;;;;;4.13;2.88;;;;;;;27.42;51.09;98601.06;2060740;28;20057;-53
2023/07/06 03:14:51;;;;;;;3.97;3.00;;;;;;;27.42;51.31;98603.81;2061643;28;20050;-54
2023/07/06 03:15:52;;;;;;;4.45;2.85;;;;;;;27.40;51.02;98604.06;2064600;28;20046;-51
2023/07/06 03:16:54;;;;;;;3.85;2.80;;;;;;;27.43;50.97;98602.72;2062664;28;20145;-53
2023/07/06 03:17:55;;;;;;;5.07;3.03;;;;;;;27.43;50.75;98605.44;2064970;28;20104;-51
2023/07/06 03:18:57;;;;;;;3.40;2.92;;;;;;;27.42;50.95;98611.97;2064067;28;20451;-50
2023/07/06 03:19:58;;;;;;;3.08;2.42;;;;;;;27.39;50.98;98610.59;2064297;28;20042;-52
2023/07/06 03:21:01;;;;;;;4.05;2.85;;;;;;;27.42;50.98;98616.59;2063471;28;20141;-48
2023/07/06 03:22:02;;;;;;;4.25;3.15;;;;;;;27.40;51.38;98614.13;2061803;28;22028;-54
2023/07/06 03:23:04;;;;;;;7.90;2.83;;;;;;;27.41;50.72;98623.94;2056749;28;20061;-51
2023/07/06 03:24:06;;;;;;;7.10;3.30;;;;;;;27.39;50.90;98621.50;2063053;28;20057;-54
2023/07/06 03:25:10;;;;;;;4.40;3.20;;;;;;;27.39;51.47;98616.03;2062850;28;20053;-51
2023/07/06 03:26:11;;;;;;;3.58;2.50;;;;;;;27.40;50.77;98614.94;2063122;28;20056;-49
2023/07/06 03:27:13;;;;;;;4.93;2.90;;;;;;;27.40;51.56;98616.84;2063701;28;20818;-53
2023/07/06 03:28:15;;;;;;;5.45;2.80;;;;;;;27.39;51.44;98607.88;2063236;28;20053;-52
2023/07/06 03:29:17;;;;;;;4.82;2.63;;;;;;;27.39;50.93;98613.31;2062516;28;20913;-53
2023/07/06 03:30:20;;;;;;;6.70;2.85;;;;;;;27.42;50.80;98608.44;2064126;28;20519;-51
2023/07/06 03:31:22;;;;;;;5.13;3.33;;;;;;;27.37;50.87;98612.75;2062666;28;20056;-50
2023/07/06 03:32:25;;;;;;;10.40;3.33;;;;;;;27.35;51.13;98614.91;2063191;28;20058;-51
2023/07/06 03:33:26;;;;;;;3.42;2.60;;;;;;;27.33;51.24;98608.91;2059755;28;20719;-54
2023/07/06 03:34:27;;;;;;;7.20;3.50;;;;;;;27.34;51.26;98610.56;2063243;28;20038;-52
2023/07/06 03:35:29;;;;;;;3.72;2.80;;;;;;;27.36;51.24;98608.41;2063531;28;20045;-52
2023/07/06 03:36:33;;;;;;;3.55;2.60;;;;;;;27.37;50.92;98607.31;2062474;28;20042;-51
2023/07/06 03:37:35;;;;;;;3.67;2.40;;;;;;;27.40;51.11;98608.69;2062133;28;20050;-52
2023/07/06 03:38:36;;;;;;;3.88;2.58;;;;;;;27.38;51.06;98605.41;2062439;28;20242;-53
2023/07/06 03:39:38;;;;;;;4.35;3.03;;;;;;;27.41;51.02;98610.31;2062994;28;20088;-49
2023/07/06 03:40:38;;;;;;;3.63;2.80;;;;;;;27.39;51.09;98605.16;2063680;28;20472;-48
2023/07/06 03:41:42;;;;;;;4.32;3.20;;;;;;;27.39;51.21;98607.88;2053338;28;20061;-50
2023/07/06 03:42:45;;;;;;;2.95;2.20;;;;;;;27.38;51.11;98606.22;2062539;28;20054;-48
2023/07/06 03:43:47;;;;;;;5.30;2.80;;;;;;;27.36;50.93;98602.94;2062121;28;20794;-49
2023/07/06 03:44:48;;;;;;;9.05;3.45;;;;;;;27.37;50.76;98609.22;2062237;28;20111;-54
2023/07/06 03:45:50;;;;;;;3.92;2.95;;;;;;;27.37;51.54;98607.31;2062836;28;20119;-53
2023/07/06 03:46:50;;;;;;;3.78;2.97;;;;;;;27.37;50.96;98611.94;2060658;28;20054;-49
2023/07/06 03:47:52;;;;;;;4.80;2.92;;;;;;;27.36;51.11;98602.13;2063152;28;20085;-48
2023/07/06 03:48:55;;;;;;;5.97;2.83;;;;;;;27.35;51.56;98611.38;2063583;28;20049;-51
2023/07/06 03:49:56;;;;;;;6.50;3.08;;;;;;;27.39;50.93;98609.78;2065431;28;20655;-53
2023/07/06 03:51:02;;;;;;;4.78;3.20;;;;;;;27.40;51.31;98612.22;2060115;28;20053;-49
2023/07/06 03:52:06;;;;;;;4.53;3.03;;;;;;;27.38;51.17;98619.81;2063233;28;20053;-51
2023/07/06 03:53:07;;;;;;;4.45;3.10;;;;;;;27.34;51.83;98624.16;2060971;28;20619;-52
2023/07/06 03:54:09;;;;;;;5.75;3.25;;;;;;;27.37;50.99;98622.81;2062320;28;20070;-53
2023/07/06 03:55:13;;;;;;;3.75;2.72;;;;;;;27.38;50.46;98625.28;2061148;28;20104;-51
2023/07/06 03:56:16;;;;;;;4.93;2.85;;;;;;;27.36;50.19;98622.00;2064466;28;20500;-53
2023/07/06 03:57:17;;;;;;;8.80;3.47;;;;;;;27.38;50.33;98622.53;2050283;28;20061;-55
2023/07/06 03:58:21;;;;;;;4.22;2.95;;;;;;;27.37;50.14;98629.09;2058181;28;20057;-54
2023/07/06 03:59:22;;;;;;;5.32;2.53;;;;;;;27.38;50.21;98628.00;2061563;28;20049;-49
2023/07/06 04:00:24;;;;;;;5.97;3.47;;;;;;;27.39;50.76;98628.84;2062539;28;20089;-50
2023/07/06 04:01:27;;;;;;;2.60;2.40;;;;;;;27.38;51.21;98629.91;2060415;28;20061;-53
2023/07/06 04:02:29;;;;;;;5.18;2.95;;;;;;;27.38;50.69;98628.00;2062856;28;20146;-49
2023/07/06 04:03:32;;;;;;;8.82;3.47;;;;;;;27.39;50.74;98628.84;2061437;28;20050;-49
2023/07/06 04:04:34;;;;;;;4.18;2.60;;;;;;;27.36;51.17;98632.91;2061516;28;20050;-49
2023/07/06 04:05:38;;;;;;;5.00;2.58;;;;;;;27.36;51.14;98627.47;2061697;28;20054;-53
2023/07/06 04:06:41;;;;;;;5.07;3.33;;;;;;;27.33;51.14;98624.41;2062807;28;20046;-50
2023/07/06 04:07:43;;;;;;;3.38;2.55;;;;;;;27.36;51.13;98626.66;2062591;28;20081;-49
2023/07/06 04:08:46;;;;;;;3.55;2.63;;;;;;;27.37;50.97;98631.81;2062828;28;20073;-51
2023/07/06 04:09:47;;;;;;;3.65;3.00;;;;;;;27.33;51.56;98625.25;2061481;28;20057;-51
2023/07/06 04:10:50;;;;;;;3.50;2.72;;;;;;;27.36;51.13;98623.91;2063572;28;20164;-50
2023/07/06 04:11:53;;;;;;;4.53;2.97;;;;;;;27.37;50.92;98620.09;2062386;28;20073;-49
2023/07/06 04:12:55;;;;;;;7.53;2.88;;;;;;;27.36;50.93;98622.00;2059906;28;20743;-51
2023/07/06 04:13:57;;;;;;;6.45;3.45;;;;;;;27.34;51.16;98621.44;2062113;28;20061;-52
2023/07/06 04:14:59;;;;;;;3.97;3.03;;;;;;;27.33;51.63;98629.88;2053359;28;20519;-49
2023/07/06 04:16:00;;;;;;;4.07;3.00;;;;;;;27.34;51.15;98635.06;2061687;28;20050;-50
2023/07/06 04:17:03;;;;;;;4.20;3.03;;;;;;;27.34;51.20;98637.78;2064657;28;20053;-50
2023/07/06 04:18:05;;;;;;;6.25;2.30;;;;;;;27.34;51.10;98636.97;2062985;28;20490;-51
2023/07/06 04:19:07;;;;;;;6.90;3.95;;;;;;;27.32;51.39;98639.94;2061237;28;20410;-51
2023/07/06 04:20:18;;;;;;;3.78;2.38;;;;;;;27.35;51.47;98639.41;2063309;28;20038;-52
2023/07/06 04:21:21;;;;;;;5.30;3.10;;;;;;;27.32;51.46;98639.94;2061310;28;20093;-49
2023/07/06 04:22:22;;;;;;;5.13;3.10;;;;;;;27.30;51.60;98636.69;2059095;28;20045;-53
2023/07/06 04:23:25;;;;;;;3.22;2.80;;;;;;;27.29;51.57;98626.84;2061569;28;20110;-51
2023/07/06 04:24:31;;;;;;;8.48;3.00;;;;;;;27.31;51.32;98635.59;2060784;28;20179;-53
2023/07/06 04:25:35;;;;;;;6.15;2.97;;;;;;;27.33;50.99;98638.03;2060746;28;20107;-54
2023/07/06 04:26:36;;;;;;;6.18;3.13;;;;;;;27.32;51.43;98637.22;2061455;28;21202;-50
2023/07/06 04:27:38;;;;;;;5.32;2.92;;;;;;;27.36;50.88;98629.38;2061698;28;20073;-51
2023/07/06 04:28:40;;;;;;;4.50;3.00;;;;;;;27.36;50.77;98634.81;2059139;28;20517;-50
2023/07/06 04:29:42;;;;;;;3.97;3.15;;;;;;;27.32;51.18;98637.22;2063000;28;20049;-52
2023/07/06 04:30:45;;;;;;;6.43;2.90;;;;;;;27.34;51.09;98635.06;2061189;28;20432;-50
2023/07/06 04:31:47;;;;;;;5.82;2.90;;;;;;;27.33;51.64;98640.75;2055343;28;20116;-58
2023/07/06 04:32:48;;;;;;;3.70;2.30;;;;;;;27.30;51.71;98636.69;2062411;28;20049;-53
2023/07/06 04:33:50;;;;;;;5.20;3.05;;;;;;;27.31;51.43;98645.66;2061198;28;20144;-53
2023/07/06 04:34:51;;;;;;;4.05;2.70;;;;;;;27.36;51.12;98646.53;2063538;28;20619;-50
2023/07/06 04:35:54;;;;;;;5.85;3.10;;;;;;;27.32;51.31;98634.50;2060757;28;20148;-51
2023/07/06 04:36:54;;;;;;;3.80;2.88;;;;;;;27.31;51.62;98635.59;2062145;28;20057;-50
2023/07/06 04:37:56;;;;;;;4.50;2.75;;;;;;;27.33;51.00;98641.59;2063381;28;20053;-50
2023/07/06 04:38:59;;;;;;;3.50;2.83;;;;;;;27.32;51.08;98644.56;2059274;28;20508;-51
2023/07/06 04:40:01;;;;;;;5.07;2.63;;;;;;;27.32;51.10;98642.66;2062842;28;20068;-54
2023/07/06 04:41:01;;;;;;;5.68;3.30;;;;;;;27.29;51.34;98643.19;2060111;28;20082;-53
2023/07/06 04:42:05;;;;;;;5.00;2.90;;;;;;;27.30;51.08;98650.28;2061778;28;20050;-50
2023/07/06 04:43:06;;;;;;;4.32;2.92;;;;;;;27.32;51.04;98650.03;2063347;28;20056;-52
2023/07/06 04:44:09;;;;;;;5.78;3.22;;;;;;;27.30;51.22;98644.84;2060504;28;20500;-53
2023/07/06 04:45:10;;;;;;;4.50;2.55;;;;;;;27.33;51.06;98647.06;2060330;28;20053;-52
2023/07/06 04:46:13;;;;;;;4.68;2.65;;;;;;;27.34;51.12;98643.22;2064764;28;20064;-48
2023/07/06 04:47:14;;;;;;;7.47;2.75;;;;;;;27.34;50.92;98650.59;2064471;28;20583;-50
2023/07/06 04:48:17;;;;;;;4.75;3.28;;;;;;;27.30;50.77;98650.28;2062414;28;20050;-52
2023/07/06 04:49:18;;;;;;;5.82;2.85;;;;;;;27.29;50.86;98648.63;2062716;28;20050;-53
2023/07/06 04:50:22;;;;;;;5.78;2.95;;;;;;;27.31;51.03;98653.84;2064153;28;20178;-50
2023/07/06 04:51:25;;;;;;;3.33;2.80;;;;;;;27.32;51.03;98647.28;2060365;28;20042;-51
2023/07/06 04:52:26;;;;;;;5.18;2.80;;;;;;;27.35;50.76;98647.59;2054694;28;20145;-48
2023/07/06 04:53:28;;;;;;;5.80;3.10;;;;;;;27.35;50.64;98646.78;2061072;28;20065;-48
2023/07/06 04:54:30;;;;;;;5.53;2.70;;;;;;;27.37;50.43;98645.44;2059774;28;20150;-50
2023/07/06 04:55:32;;;;;;;4.10;2.80;;;;;;;27.36;50.44;98646.53;2060449;28;20042;-54
2023/07/06 04:56:33;;;;;;;6.78;3.08;;;;;;;27.34;50.47;98640.50;2060696;28;20046;-50
2023/07/06 04:57:36;;;;;;;5.32;2.92;;;;;;;27.35;50.37;98639.41;2062205;28;20042;-52
2023/07/06 04:58:38;;;;;;;5.80;2.92;;;;;;;27.34;50.72;98639.69;2059522;28;20602;-49
2023/07/06 04:59:41;;;;;;;5.97;3.40;;;;;;;27.35;50.34;98641.31;2058775;28;20078;-52